METAR Data
IDs: Format: Raw Decoded Include TAF

Data at: 0737 UTC 01 Aug 2021

EGNS 010720Z 33008KT 9999 FEW010 BKN036 14/11 Q1011 NOSIG